sensor_id;sensor_type;location;lat;lon;timestamp;P1;durP1;ratioP1;P2;durP2;ratioP2
22768;SDS011;13001;51.968;5.918;2023-04-19T05:24:43;548.45;;;509.13;;
22768;SDS011;13001;51.968;5.918;2023-04-19T05:27:10;269.90;;;249.23;;
22768;SDS011;13001;51.968;5.918;2023-04-19T05:29:38;242.03;;;224.13;;
22768;SDS011;13001;51.968;5.918;2023-04-19T05:32:05;178.07;;;166.27;;
22768;SDS011;13001;51.968;5.918;2023-04-19T05:37:00;391.60;;;363.43;;
22768;SDS011;13001;51.968;5.918;2023-04-19T05:39:28;418.77;;;389.02;;
22768;SDS011;13001;51.968;5.918;2023-04-19T05:41:55;286.53;;;267.83;;
22768;SDS011;13001;51.968;5.918;2023-04-19T05:44:22;263.55;;;246.65;;
22768;SDS011;13001;51.968;5.918;2023-04-19T05:46:49;269.25;;;253.25;;
22768;SDS011;13001;51.968;5.918;2023-04-19T05:49:17;327.68;;;307.55;;
22768;SDS011;13001;51.968;5.918;2023-04-19T05:51:44;366.15;;;342.37;;
22768;SDS011;13001;51.968;5.918;2023-04-19T05:54:11;413.90;;;386.27;;
22768;SDS011;13001;51.968;5.918;2023-04-19T05:56:39;532.05;;;490.55;;
22768;SDS011;13001;51.968;5.918;2023-04-19T05:59:06;479.05;;;444.67;;
22768;SDS011;13001;51.968;5.918;2023-04-19T06:01:35;505.75;;;467.15;;
22768;SDS011;13001;51.968;5.918;2023-04-19T06:04:02;542.17;;;500.75;;
22768;SDS011;13001;51.968;5.918;2023-04-19T06:06:30;635.08;;;582.42;;
22768;SDS011;13001;51.968;5.918;2023-04-19T06:08:57;661.70;;;607.30;;
22768;SDS011;13001;51.968;5.918;2023-04-19T06:11:24;648.62;;;595.33;;
22768;SDS011;13001;51.968;5.918;2023-04-19T06:13:52;646.85;;;595.38;;
22768;SDS011;13001;51.968;5.918;2023-04-19T06:16:19;663.90;;;609.40;;
22768;SDS011;13001;51.968;5.918;2023-04-19T06:18:46;662.50;;;608.60;;
22768;SDS011;13001;51.968;5.918;2023-04-19T06:21:13;667.65;;;611.85;;
22768;SDS011;13001;51.968;5.918;2023-04-19T06:23:41;630.15;;;580.63;;
22768;SDS011;13001;51.968;5.918;2023-04-19T06:26:08;599.45;;;553.50;;
22768;SDS011;13001;51.968;5.918;2023-04-19T06:28:35;569.33;;;525.70;;
22768;SDS011;13001;51.968;5.918;2023-04-19T06:31:03;541.62;;;501.27;;
22768;SDS011;13001;51.968;5.918;2023-04-19T06:33:30;516.77;;;479.90;;
22768;SDS011;13001;51.968;5.918;2023-04-19T06:35:58;436.98;;;406.55;;
22768;SDS011;13001;51.968;5.918;2023-04-19T06:38:25;370.30;;;346.07;;
22768;SDS011;13001;51.968;5.918;2023-04-19T06:40:52;594.25;;;550.58;;
22768;SDS011;13001;51.968;5.918;2023-04-19T06:43:19;633.02;;;584.65;;
22768;SDS011;13001;51.968;5.918;2023-04-19T06:45:47;398.23;;;372.30;;
22768;SDS011;13001;51.968;5.918;2023-04-19T06:48:14;252.32;;;236.82;;
22768;SDS011;13001;51.968;5.918;2023-04-19T06:50:41;405.15;;;367.55;;
22768;SDS011;13001;51.968;5.918;2023-04-19T06:53:08;226.35;;;212.60;;
22768;SDS011;13001;51.968;5.918;2023-04-19T06:55:36;315.75;;;295.57;;
22768;SDS011;13001;51.968;5.918;2023-04-19T06:58:03;263.07;;;247.80;;
22768;SDS011;13001;51.968;5.918;2023-04-19T07:00:32;267.23;;;251.87;;
22768;SDS011;13001;51.968;5.918;2023-04-19T07:02:59;371.32;;;345.95;;
22768;SDS011;13001;51.968;5.918;2023-04-19T07:05:30;402.97;;;369.00;;
22768;SDS011;13001;51.968;5.918;2023-04-19T07:07:57;396.02;;;367.57;;
22768;SDS011;13001;51.968;5.918;2023-04-19T07:10:24;325.95;;;304.55;;
22768;SDS011;13001;51.968;5.918;2023-04-19T07:12:52;417.97;;;388.20;;
22768;SDS011;13001;51.968;5.918;2023-04-19T07:15:19;309.20;;;289.63;;
22768;SDS011;13001;51.968;5.918;2023-04-19T07:17:46;250.93;;;236.07;;
22768;SDS011;13001;51.968;5.918;2023-04-19T07:20:14;266.93;;;250.38;;
22768;SDS011;13001;51.968;5.918;2023-04-19T07:22:41;242.82;;;228.25;;
22768;SDS011;13001;51.968;5.918;2023-04-19T07:25:08;385.38;;;354.38;;
22768;SDS011;13001;51.968;5.918;2023-04-19T07:27:36;225.43;;;209.95;;
22768;SDS011;13001;51.968;5.918;2023-04-19T07:30:03;235.55;;;216.08;;
22768;SDS011;13001;51.968;5.918;2023-04-19T07:32:30;192.13;;;179.40;;
22768;SDS011;13001;51.968;5.918;2023-04-19T07:34:58;215.03;;;199.07;;
22768;SDS011;13001;51.968;5.918;2023-04-19T07:37:25;299.20;;;275.60;;
22768;SDS011;13001;51.968;5.918;2023-04-19T07:39:53;174.87;;;162.65;;
22768;SDS011;13001;51.968;5.918;2023-04-19T07:42:20;189.18;;;176.45;;
22768;SDS011;13001;51.968;5.918;2023-04-19T07:44:48;159.60;;;149.70;;
22768;SDS011;13001;51.968;5.918;2023-04-19T07:47:15;200.18;;;187.57;;
22768;SDS011;13001;51.968;5.918;2023-04-19T07:49:42;269.37;;;251.07;;
22768;SDS011;13001;51.968;5.918;2023-04-19T07:52:09;308.68;;;286.50;;
22768;SDS011;13001;51.968;5.918;2023-04-19T07:54:37;322.12;;;296.63;;
22768;SDS011;13001;51.968;5.918;2023-04-19T07:57:07;250.35;;;233.72;;
22768;SDS011;13001;51.968;5.918;2023-04-19T07:59:34;244.40;;;230.25;;
22768;SDS011;13001;51.968;5.918;2023-04-19T08:02:01;272.20;;;254.00;;
22768;SDS011;13001;51.968;5.918;2023-04-19T08:04:28;320.20;;;295.70;;
22768;SDS011;13001;51.968;5.918;2023-04-19T08:06:56;147.23;;;138.13;;
22768;SDS011;13001;51.968;5.918;2023-04-19T08:09:23;265.67;;;244.90;;
22768;SDS011;13001;51.968;5.918;2023-04-19T08:11:50;206.80;;;191.83;;
22768;SDS011;13001;51.968;5.918;2023-04-19T08:14:18;307.85;;;283.65;;
22768;SDS011;13001;51.968;5.918;2023-04-19T08:16:46;364.17;;;333.13;;
22768;SDS011;13001;51.968;5.918;2023-04-19T08:19:13;203.07;;;188.33;;
22768;SDS011;13001;51.968;5.918;2023-04-19T08:21:40;160.77;;;150.43;;
22768;SDS011;13001;51.968;5.918;2023-04-19T08:24:07;282.23;;;260.10;;
22768;SDS011;13001;51.968;5.918;2023-04-19T08:26:35;444.33;;;402.00;;
22768;SDS011;13001;51.968;5.918;2023-04-19T08:29:04;267.85;;;245.37;;
22768;SDS011;13001;51.968;5.918;2023-04-19T08:31:31;251.85;;;234.90;;
22768;SDS011;13001;51.968;5.918;2023-04-19T08:33:58;315.75;;;296.12;;
22768;SDS011;13001;51.968;5.918;2023-04-19T08:36:26;358.30;;;330.73;;
22768;SDS011;13001;51.968;5.918;2023-04-19T08:38:54;277.45;;;254.75;;
22768;SDS011;13001;51.968;5.918;2023-04-19T08:41:21;195.38;;;179.87;;
22768;SDS011;13001;51.968;5.918;2023-04-19T08:43:50;195.60;;;180.05;;
22768;SDS011;13001;51.968;5.918;2023-04-19T08:46:18;154.53;;;144.02;;
22768;SDS011;13001;51.968;5.918;2023-04-19T08:48:45;205.50;;;188.83;;
22768;SDS011;13001;51.968;5.918;2023-04-19T08:51:13;146.32;;;136.28;;
22768;SDS011;13001;51.968;5.918;2023-04-19T08:53:42;230.77;;;210.85;;
22768;SDS011;13001;51.968;5.918;2023-04-19T08:56:10;186.15;;;171.40;;
22768;SDS011;13001;51.968;5.918;2023-04-19T08:58:38;247.45;;;225.75;;
22768;SDS011;13001;51.968;5.918;2023-04-19T09:01:06;259.05;;;236.37;;
22768;SDS011;13001;51.968;5.918;2023-04-19T09:03:33;176.00;;;162.40;;
22768;SDS011;13001;51.968;5.918;2023-04-19T09:06:01;187.22;;;173.32;;
22768;SDS011;13001;51.968;5.918;2023-04-19T09:08:29;225.38;;;205.55;;
22768;SDS011;13001;51.968;5.918;2023-04-19T09:10:58;177.27;;;163.10;;
22768;SDS011;13001;51.968;5.918;2023-04-19T09:13:28;215.50;;;198.43;;
22768;SDS011;13001;51.968;5.918;2023-04-19T09:15:55;214.88;;;197.50;;
22768;SDS011;13001;51.968;5.918;2023-04-19T09:18:23;190.32;;;175.95;;
22768;SDS011;13001;51.968;5.918;2023-04-19T09:20:50;355.70;;;321.62;;
22768;SDS011;13001;51.968;5.918;2023-04-19T09:23:25;378.50;;;341.60;;
22768;SDS011;13001;51.968;5.918;2023-04-19T09:26:03;225.93;;;206.68;;
22768;SDS011;13001;51.968;5.918;2023-04-19T09:28:27;175.27;;;164.57;;
22768;SDS011;13001;51.968;5.918;2023-04-19T09:30:55;353.42;;;321.27;;
22768;SDS011;13001;51.968;5.918;2023-04-19T09:33:35;369.80;;;338.77;;
22768;SDS011;13001;51.968;5.918;2023-04-19T09:36:00;309.57;;;286.73;;
22768;SDS011;13001;51.968;5.918;2023-04-19T09:38:27;223.68;;;208.97;;
22768;SDS011;13001;51.968;5.918;2023-04-19T09:41:07;218.33;;;203.40;;
22768;SDS011;13001;51.968;5.918;2023-04-19T09:43:35;272.40;;;250.90;;
22768;SDS011;13001;51.968;5.918;2023-04-19T09:46:02;232.03;;;213.97;;
22768;SDS011;13001;51.968;5.918;2023-04-19T09:48:30;300.17;;;275.80;;
22768;SDS011;13001;51.968;5.918;2023-04-19T09:50:58;350.62;;;321.98;;
22768;SDS011;13001;51.968;5.918;2023-04-19T09:53:27;355.20;;;323.13;;
22768;SDS011;13001;51.968;5.918;2023-04-19T09:55:54;253.02;;;236.77;;
22768;SDS011;13001;51.968;5.918;2023-04-19T09:58:21;297.70;;;276.20;;
22768;SDS011;13001;51.968;5.918;2023-04-19T10:00:49;416.77;;;383.68;;
22768;SDS011;13001;51.968;5.918;2023-04-19T10:03:18;208.38;;;195.35;;
22768;SDS011;13001;51.968;5.918;2023-04-19T10:05:49;189.28;;;178.10;;
22768;SDS011;13001;51.968;5.918;2023-04-19T10:08:16;297.67;;;273.50;;
22768;SDS011;13001;51.968;5.918;2023-04-19T10:10:44;182.50;;;171.28;;
22768;SDS011;13001;51.968;5.918;2023-04-19T10:13:15;195.70;;;182.37;;
22768;SDS011;13001;51.968;5.918;2023-04-19T10:15:43;405.10;;;368.85;;
22768;SDS011;13001;51.968;5.918;2023-04-19T10:18:11;309.00;;;285.00;;
22768;SDS011;13001;51.968;5.918;2023-04-19T10:20:52;209.57;;;196.10;;
22768;SDS011;13001;51.968;5.918;2023-04-19T10:23:19;289.27;;;266.73;;
22768;SDS011;13001;51.968;5.918;2023-04-19T10:25:48;288.62;;;268.27;;
22768;SDS011;13001;51.968;5.918;2023-04-19T10:28:15;280.25;;;255.77;;
22768;SDS011;13001;51.968;5.918;2023-04-19T10:30:57;555.03;;;495.15;;
22768;SDS011;13001;51.968;5.918;2023-04-19T10:33:24;278.42;;;256.32;;
22768;SDS011;13001;51.968;5.918;2023-04-19T10:35:56;515.98;;;465.25;;
22768;SDS011;13001;51.968;5.918;2023-04-19T10:41:09;309.30;;;283.68;;
22768;SDS011;13001;51.968;5.918;2023-04-19T10:43:44;353.57;;;326.10;;
22768;SDS011;13001;51.968;5.918;2023-04-19T10:46:14;312.32;;;291.32;;
22768;SDS011;13001;51.968;5.918;2023-04-19T10:51:16;441.45;;;404.92;;
22768;SDS011;13001;51.968;5.918;2023-04-19T10:56:21;482.20;;;442.37;;
22768;SDS011;13001;51.968;5.918;2023-04-19T11:04:15;559.77;;;503.47;;
22768;SDS011;13001;51.968;5.918;2023-04-19T11:09:27;606.83;;;553.88;;
22768;SDS011;13001;51.968;5.918;2023-04-19T11:12:00;667.33;;;600.20;;
22768;SDS011;13001;51.968;5.918;2023-04-19T11:14:24;302.35;;;282.68;;
22768;SDS011;13001;51.968;5.918;2023-04-19T11:16:52;254.75;;;240.20;;
22768;SDS011;13001;51.968;5.918;2023-04-19T11:19:19;286.32;;;265.57;;
22768;SDS011;13001;51.968;5.918;2023-04-19T11:21:47;454.30;;;409.33;;
22768;SDS011;13001;51.968;5.918;2023-04-19T11:24:15;333.45;;;310.40;;
22768;SDS011;13001;51.968;5.918;2023-04-19T11:26:44;270.90;;;253.10;;
22768;SDS011;13001;51.968;5.918;2023-04-19T11:29:11;347.27;;;320.07;;
22768;SDS011;13001;51.968;5.918;2023-04-19T11:31:39;432.58;;;392.05;;
22768;SDS011;13001;51.968;5.918;2023-04-19T11:34:07;495.90;;;447.70;;
22768;SDS011;13001;51.968;5.918;2023-04-19T11:36:34;286.30;;;265.37;;
22768;SDS011;13001;51.968;5.918;2023-04-19T11:39:04;430.50;;;395.52;;
22768;SDS011;13001;51.968;5.918;2023-04-19T11:41:37;560.90;;;505.23;;
22768;SDS011;13001;51.968;5.918;2023-04-19T11:44:17;444.80;;;409.45;;
22768;SDS011;13001;51.968;5.918;2023-04-19T11:46:57;385.80;;;356.95;;
22768;SDS011;13001;51.968;5.918;2023-04-19T11:49:25;431.82;;;395.27;;
22768;SDS011;13001;51.968;5.918;2023-04-19T11:51:56;430.77;;;396.45;;
22768;SDS011;13001;51.968;5.918;2023-04-19T11:54:23;389.93;;;357.40;;
22768;SDS011;13001;51.968;5.918;2023-04-19T11:56:58;413.20;;;373.60;;
22768;SDS011;13001;51.968;5.918;2023-04-19T11:59:27;374.40;;;344.55;;
22768;SDS011;13001;51.968;5.918;2023-04-19T12:01:54;317.45;;;296.32;;
22768;SDS011;13001;51.968;5.918;2023-04-19T12:04:22;275.45;;;256.85;;
22768;SDS011;13001;51.968;5.918;2023-04-19T12:06:56;335.20;;;309.43;;
22768;SDS011;13001;51.968;5.918;2023-04-19T12:09:24;443.93;;;406.32;;
22768;SDS011;13001;51.968;5.918;2023-04-19T12:11:52;319.13;;;296.80;;
22768;SDS011;13001;51.968;5.918;2023-04-19T12:14:20;275.20;;;257.20;;
22768;SDS011;13001;51.968;5.918;2023-04-19T12:17:07;242.35;;;227.60;;
22768;SDS011;13001;51.968;5.918;2023-04-19T12:19:36;347.07;;;320.15;;
22768;SDS011;13001;51.968;5.918;2023-04-19T12:22:07;413.22;;;380.12;;
22768;SDS011;13001;51.968;5.918;2023-04-19T12:24:34;561.90;;;509.60;;
22768;SDS011;13001;51.968;5.918;2023-04-19T12:27:02;434.22;;;397.98;;
22768;SDS011;13001;51.968;5.918;2023-04-19T12:29:29;316.02;;;293.63;;
22768;SDS011;13001;51.968;5.918;2023-04-19T12:31:56;435.13;;;401.25;;
22768;SDS011;13001;51.968;5.918;2023-04-19T12:34:23;539.60;;;490.30;;
22768;SDS011;13001;51.968;5.918;2023-04-19T12:36:51;452.60;;;416.62;;
22768;SDS011;13001;51.968;5.918;2023-04-19T12:39:18;288.65;;;270.93;;
22768;SDS011;13001;51.968;5.918;2023-04-19T12:41:45;450.40;;;414.17;;
22768;SDS011;13001;51.968;5.918;2023-04-19T12:44:14;538.10;;;490.17;;
22768;SDS011;13001;51.968;5.918;2023-04-19T12:46:42;524.40;;;480.90;;
22768;SDS011;13001;51.968;5.918;2023-04-19T12:49:09;230.25;;;217.13;;
22768;SDS011;13001;51.968;5.918;2023-04-19T12:51:36;504.53;;;456.80;;
22768;SDS011;13001;51.968;5.918;2023-04-19T12:54:03;277.65;;;260.32;;
22768;SDS011;13001;51.968;5.918;2023-04-19T12:56:33;571.98;;;516.85;;
22768;SDS011;13001;51.968;5.918;2023-04-19T12:59:00;306.98;;;288.85;;
22768;SDS011;13001;51.968;5.918;2023-04-19T13:01:28;471.60;;;435.07;;
22768;SDS011;13001;51.968;5.918;2023-04-19T13:03:55;544.42;;;497.05;;
22768;SDS011;13001;51.968;5.918;2023-04-19T13:06:22;396.85;;;368.02;;
22768;SDS011;13001;51.968;5.918;2023-04-19T13:08:49;264.10;;;248.80;;
22768;SDS011;13001;51.968;5.918;2023-04-19T13:11:17;224.85;;;211.80;;
22768;SDS011;13001;51.968;5.918;2023-04-19T13:13:46;276.90;;;260.90;;
22768;SDS011;13001;51.968;5.918;2023-04-19T13:16:13;374.73;;;352.18;;
22768;SDS011;13001;51.968;5.918;2023-04-19T13:18:40;317.95;;;299.83;;
22768;SDS011;13001;51.968;5.918;2023-04-19T13:21:07;343.97;;;324.25;;
22768;SDS011;13001;51.968;5.918;2023-04-19T13:23:35;315.73;;;298.00;;
22768;SDS011;13001;51.968;5.918;2023-04-19T13:26:02;320.75;;;302.80;;
22768;SDS011;13001;51.968;5.918;2023-04-19T13:28:29;451.87;;;413.57;;
22768;SDS011;13001;51.968;5.918;2023-04-19T13:30:57;455.45;;;419.62;;
22768;SDS011;13001;51.968;5.918;2023-04-19T13:33:24;360.25;;;329.75;;
22768;SDS011;13001;51.968;5.918;2023-04-19T13:35:52;207.77;;;195.87;;
22768;SDS011;13001;51.968;5.918;2023-04-19T13:38:21;267.27;;;252.07;;
22768;SDS011;13001;51.968;5.918;2023-04-19T13:40:49;338.40;;;315.10;;
22768;SDS011;13001;51.968;5.918;2023-04-19T13:43:16;220.02;;;207.35;;
22768;SDS011;13001;51.968;5.918;2023-04-19T13:45:43;227.10;;;214.20;;
22768;SDS011;13001;51.968;5.918;2023-04-19T13:48:11;564.75;;;512.12;;
22768;SDS011;13001;51.968;5.918;2023-04-19T13:50:38;270.93;;;254.30;;
22768;SDS011;13001;51.968;5.918;2023-04-19T13:53:06;236.32;;;222.90;;
22768;SDS011;13001;51.968;5.918;2023-04-19T13:55:33;249.65;;;235.05;;
22768;SDS011;13001;51.968;5.918;2023-04-19T13:58:00;208.75;;;197.00;;
22768;SDS011;13001;51.968;5.918;2023-04-19T14:00:28;204.97;;;191.45;;
22768;SDS011;13001;51.968;5.918;2023-04-19T14:02:55;333.70;;;310.15;;
22768;SDS011;13001;51.968;5.918;2023-04-19T14:05:22;241.20;;;227.53;;
22768;SDS011;13001;51.968;5.918;2023-04-19T14:07:49;319.43;;;297.77;;
22768;SDS011;13001;51.968;5.918;2023-04-19T14:10:17;427.45;;;390.87;;
22768;SDS011;13001;51.968;5.918;2023-04-19T14:12:45;393.77;;;363.92;;
22768;SDS011;13001;51.968;5.918;2023-04-19T14:15:12;327.60;;;303.60;;
22768;SDS011;13001;51.968;5.918;2023-04-19T14:17:39;380.52;;;354.07;;
22768;SDS011;13001;51.968;5.918;2023-04-19T14:20:07;475.57;;;435.15;;
22768;SDS011;13001;51.968;5.918;2023-04-19T14:22:34;575.30;;;524.88;;
22768;SDS011;13001;51.968;5.918;2023-04-19T14:25:02;435.47;;;401.40;;
22768;SDS011;13001;51.968;5.918;2023-04-19T14:27:31;338.50;;;314.93;;
22768;SDS011;13001;51.968;5.918;2023-04-19T14:29:58;356.57;;;328.58;;
22768;SDS011;13001;51.968;5.918;2023-04-19T14:32:26;416.60;;;381.77;;
22768;SDS011;13001;51.968;5.918;2023-04-19T14:34:53;466.25;;;430.27;;
22768;SDS011;13001;51.968;5.918;2023-04-19T14:37:21;301.47;;;282.97;;
22768;SDS011;13001;51.968;5.918;2023-04-19T14:39:49;306.68;;;288.45;;
22768;SDS011;13001;51.968;5.918;2023-04-19T14:42:16;316.00;;;297.75;;
22768;SDS011;13001;51.968;5.918;2023-04-19T14:44:44;380.77;;;355.20;;
22768;SDS011;13001;51.968;5.918;2023-04-19T14:47:12;428.83;;;398.13;;
22768;SDS011;13001;51.968;5.918;2023-04-19T14:49:40;435.90;;;405.27;;
22768;SDS011;13001;51.968;5.918;2023-04-19T14:52:07;442.12;;;410.65;;
22768;SDS011;13001;51.968;5.918;2023-04-19T14:54:34;307.53;;;289.97;;
22768;SDS011;13001;51.968;5.918;2023-04-19T14:57:01;354.68;;;333.10;;
22768;SDS011;13001;51.968;5.918;2023-04-19T14:59:29;446.10;;;413.45;;
22768;SDS011;13001;51.968;5.918;2023-04-19T15:01:56;546.65;;;501.75;;
22768;SDS011;13001;51.968;5.918;2023-04-19T15:04:23;456.67;;;418.90;;
22768;SDS011;13001;51.968;5.918;2023-04-19T15:06:51;480.75;;;440.90;;
22768;SDS011;13001;51.968;5.918;2023-04-19T15:09:18;502.37;;;460.40;;
22768;SDS011;13001;51.968;5.918;2023-04-19T15:11:45;654.30;;;578.50;;
22768;SDS011;13001;51.968;5.918;2023-04-19T15:14:12;471.87;;;432.90;;
22768;SDS011;13001;51.968;5.918;2023-04-19T15:16:40;405.80;;;378.33;;
22768;SDS011;13001;51.968;5.918;2023-04-19T15:19:07;490.35;;;450.05;;
22768;SDS011;13001;51.968;5.918;2023-04-19T15:21:35;399.90;;;372.98;;
22768;SDS011;13001;51.968;5.918;2023-04-19T15:24:02;517.13;;;475.93;;
22768;SDS011;13001;51.968;5.918;2023-04-19T15:26:31;499.90;;;458.23;;
22768;SDS011;13001;51.968;5.918;2023-04-19T15:28:58;433.72;;;403.05;;
22768;SDS011;13001;51.968;5.918;2023-04-19T15:31:27;370.45;;;347.20;;
22768;SDS011;13001;51.968;5.918;2023-04-19T15:33:54;374.23;;;351.23;;
22768;SDS011;13001;51.968;5.918;2023-04-19T15:36:21;371.50;;;348.90;;
22768;SDS011;13001;51.968;5.918;2023-04-19T15:38:49;430.48;;;399.23;;
22768;SDS011;13001;51.968;5.918;2023-04-19T15:41:16;393.55;;;368.48;;
22768;SDS011;13001;51.968;5.918;2023-04-19T15:43:44;382.87;;;359.10;;
22768;SDS011;13001;51.968;5.918;2023-04-19T15:46:11;439.27;;;408.42;;
22768;SDS011;13001;51.968;5.918;2023-04-19T15:48:39;402.25;;;377.02;;
22768;SDS011;13001;51.968;5.918;2023-04-19T15:51:07;334.02;;;314.38;;
22768;SDS011;13001;51.968;5.918;2023-04-19T15:53:34;505.15;;;465.20;;
22768;SDS011;13001;51.968;5.918;2023-04-19T15:56:01;396.57;;;371.20;;
22768;SDS011;13001;51.968;5.918;2023-04-19T15:58:29;545.40;;;492.57;;
22768;SDS011;13001;51.968;5.918;2023-04-19T16:00:56;436.98;;;406.32;;
22768;SDS011;13001;51.968;5.918;2023-04-19T16:03:23;406.78;;;377.15;;
22768;SDS011;13001;51.968;5.918;2023-04-19T16:05:51;411.45;;;382.80;;
22768;SDS011;13001;51.968;5.918;2023-04-19T16:08:20;561.17;;;509.97;;
22768;SDS011;13001;51.968;5.918;2023-04-19T16:10:47;495.18;;;456.50;;
22768;SDS011;13001;51.968;5.918;2023-04-19T16:13:15;450.50;;;417.68;;
22768;SDS011;13001;51.968;5.918;2023-04-19T16:15:43;480.20;;;444.40;;
22768;SDS011;13001;51.968;5.918;2023-04-19T16:18:10;455.97;;;422.00;;
22768;SDS011;13001;51.968;5.918;2023-04-19T16:20:39;488.22;;;450.72;;
22768;SDS011;13001;51.968;5.918;2023-04-19T16:23:06;475.07;;;441.10;;
22768;SDS011;13001;51.968;5.918;2023-04-19T16:25:34;427.70;;;399.17;;
22768;SDS011;13001;51.968;5.918;2023-04-19T16:28:01;445.45;;;415.00;;
22768;SDS011;13001;51.968;5.918;2023-04-19T16:30:28;548.30;;;503.93;;
22768;SDS011;13001;51.968;5.918;2023-04-19T16:32:56;408.80;;;382.37;;
22768;SDS011;13001;51.968;5.918;2023-04-19T16:35:24;467.20;;;430.67;;
22768;SDS011;13001;51.968;5.918;2023-04-19T16:37:52;487.88;;;451.73;;
22768;SDS011;13001;51.968;5.918;2023-04-19T16:40:19;535.27;;;489.65;;
22768;SDS011;13001;51.968;5.918;2023-04-19T16:42:47;499.30;;;462.52;;
22768;SDS011;13001;51.968;5.918;2023-04-19T16:45:15;484.67;;;450.32;;
22768;SDS011;13001;51.968;5.918;2023-04-19T16:47:43;467.07;;;436.02;;
22768;SDS011;13001;51.968;5.918;2023-04-19T16:50:11;495.82;;;460.30;;
22768;SDS011;13001;51.968;5.918;2023-04-19T16:52:39;555.93;;;512.40;;
22768;SDS011;13001;51.968;5.918;2023-04-19T16:55:06;497.85;;;461.20;;
22768;SDS011;13001;51.968;5.918;2023-04-19T16:57:34;719.20;;;645.73;;
22768;SDS011;13001;51.968;5.918;2023-04-19T17:00:02;547.23;;;505.15;;
22768;SDS011;13001;51.968;5.918;2023-04-19T17:02:31;509.22;;;470.18;;
22768;SDS011;13001;51.968;5.918;2023-04-19T17:04:58;548.58;;;501.27;;
22768;SDS011;13001;51.968;5.918;2023-04-19T17:07:25;480.80;;;446.57;;
22768;SDS011;13001;51.968;5.918;2023-04-19T17:09:53;448.67;;;419.40;;
22768;SDS011;13001;51.968;5.918;2023-04-19T17:12:20;421.00;;;393.30;;
22768;SDS011;13001;51.968;5.918;2023-04-19T17:14:48;438.00;;;409.43;;
22768;SDS011;13001;51.968;5.918;2023-04-19T17:17:15;445.42;;;415.85;;
22768;SDS011;13001;51.968;5.918;2023-04-19T17:19:45;408.02;;;380.70;;
22768;SDS011;13001;51.968;5.918;2023-04-19T17:22:13;485.83;;;449.87;;
22768;SDS011;13001;51.968;5.918;2023-04-19T17:24:41;459.37;;;425.43;;
22768;SDS011;13001;51.968;5.918;2023-04-19T17:27:09;494.95;;;458.38;;
22768;SDS011;13001;51.968;5.918;2023-04-19T17:29:36;478.10;;;445.88;;
22768;SDS011;13001;51.968;5.918;2023-04-19T17:32:04;457.93;;;427.07;;
22768;SDS011;13001;51.968;5.918;2023-04-19T17:34:31;470.23;;;439.40;;
22768;SDS011;13001;51.968;5.918;2023-04-19T17:36:59;421.37;;;395.23;;
22768;SDS011;13001;51.968;5.918;2023-04-19T17:39:27;585.33;;;531.53;;
22768;SDS011;13001;51.968;5.918;2023-04-19T17:41:54;415.73;;;388.60;;
22768;SDS011;13001;51.968;5.918;2023-04-19T17:44:22;591.90;;;540.42;;
22768;SDS011;13001;51.968;5.918;2023-04-19T17:46:49;496.33;;;463.72;;
22768;SDS011;13001;51.968;5.918;2023-04-19T17:49:16;556.92;;;512.20;;
22768;SDS011;13001;51.968;5.918;2023-04-19T17:51:45;486.43;;;455.57;;
22768;SDS011;13001;51.968;5.918;2023-04-19T17:54:13;583.92;;;537.48;;
22768;SDS011;13001;51.968;5.918;2023-04-19T17:56:41;555.83;;;516.50;;
22768;SDS011;13001;51.968;5.918;2023-04-19T17:59:08;511.05;;;477.32;;
22768;SDS011;13001;51.968;5.918;2023-04-19T18:01:35;483.25;;;453.38;;
22768;SDS011;13001;51.968;5.918;2023-04-19T18:04:03;469.53;;;439.07;;
22768;SDS011;13001;51.968;5.918;2023-04-19T18:06:30;453.70;;;426.22;;
22768;SDS011;13001;51.968;5.918;2023-04-19T18:08:57;445.60;;;417.40;;
22768;SDS011;13001;51.968;5.918;2023-04-19T18:11:25;520.95;;;485.07;;
22768;SDS011;13001;51.968;5.918;2023-04-19T18:13:52;503.45;;;469.13;;
22768;SDS011;13001;51.968;5.918;2023-04-19T18:16:20;482.15;;;450.22;;
22768;SDS011;13001;51.968;5.918;2023-04-19T18:18:47;538.07;;;497.87;;
22768;SDS011;13001;51.968;5.918;2023-04-19T18:21:14;499.30;;;465.28;;
22768;SDS011;13001;51.968;5.918;2023-04-19T18:23:43;610.75;;;556.52;;
22768;SDS011;13001;51.968;5.918;2023-04-19T18:26:10;494.28;;;460.45;;
22768;SDS011;13001;51.968;5.918;2023-04-19T18:28:38;536.77;;;497.15;;
22768;SDS011;13001;51.968;5.918;2023-04-19T18:31:06;477.13;;;444.65;;
22768;SDS011;13001;51.968;5.918;2023-04-19T18:33:35;510.17;;;474.68;;
22768;SDS011;13001;51.968;5.918;2023-04-19T18:36:03;542.85;;;500.62;;
22768;SDS011;13001;51.968;5.918;2023-04-19T18:38:30;431.65;;;404.05;;
22768;SDS011;13001;51.968;5.918;2023-04-19T18:40:58;410.30;;;385.25;;
22768;SDS011;13001;51.968;5.918;2023-04-19T18:43:27;434.30;;;406.73;;
22768;SDS011;13001;51.968;5.918;2023-04-19T18:45:54;486.65;;;450.27;;
22768;SDS011;13001;51.968;5.918;2023-04-19T18:48:22;459.73;;;428.07;;
22768;SDS011;13001;51.968;5.918;2023-04-19T18:50:54;442.90;;;413.70;;
22768;SDS011;13001;51.968;5.918;2023-04-19T18:53:23;412.27;;;386.87;;
22768;SDS011;13001;51.968;5.918;2023-04-19T18:55:53;394.77;;;370.77;;
22768;SDS011;13001;51.968;5.918;2023-04-19T18:58:20;402.65;;;377.98;;
22768;SDS011;13001;51.968;5.918;2023-04-19T19:00:47;459.85;;;428.62;;
22768;SDS011;13001;51.968;5.918;2023-04-19T19:03:15;445.12;;;416.08;;
22768;SDS011;13001;51.968;5.918;2023-04-19T19:05:42;411.28;;;385.32;;
22768;SDS011;13001;51.968;5.918;2023-04-19T19:08:09;392.70;;;368.63;;
22768;SDS011;13001;51.968;5.918;2023-04-19T19:10:36;478.42;;;445.98;;
22768;SDS011;13001;51.968;5.918;2023-04-19T19:13:04;426.10;;;399.33;;
22768;SDS011;13001;51.968;5.918;2023-04-19T19:15:31;417.72;;;391.57;;
22768;SDS011;13001;51.968;5.918;2023-04-19T19:18:00;398.60;;;374.48;;
22768;SDS011;13001;51.968;5.918;2023-04-19T19:20:28;407.08;;;381.50;;
22768;SDS011;13001;51.968;5.918;2023-04-19T19:22:55;388.32;;;364.95;;
22768;SDS011;13001;51.968;5.918;2023-04-19T19:25:22;373.60;;;351.07;;
22768;SDS011;13001;51.968;5.918;2023-04-19T19:27:49;371.55;;;349.37;;
22768;SDS011;13001;51.968;5.918;2023-04-19T19:30:20;369.82;;;347.98;;
22768;SDS011;13001;51.968;5.918;2023-04-19T19:32:47;392.25;;;367.85;;
22768;SDS011;13001;51.968;5.918;2023-04-19T19:35:15;386.87;;;362.90;;
22768;SDS011;13001;51.968;5.918;2023-04-19T19:37:42;416.45;;;389.57;;
22768;SDS011;13001;51.968;5.918;2023-04-19T19:40:09;399.45;;;374.27;;
22768;SDS011;13001;51.968;5.918;2023-04-19T19:42:37;385.35;;;360.98;;